Terminal Aerodrome Forecast
Issued by NWS

Home | Current Version | Previous Version | Text Only | Print | Product List | Glossary On
Versions: 1 2 3 4 5 6 7 8 9 10 11 12 13 14 15 16 17
000
FTUS43 KGRR 042300 RRA
TAFBTL
TAF
KBTL 042348Z 0500/0524 28006KT P6SM BKN200
     FM050400 03005KT P6SM BKN040
     FM051200 08007KT 5SM -SHRA BR OVC030
     FM051800 10006KT 3SM BR VCSH OVC020=

USA.gov is the U.S. government's official web portal to all federal, state and local government web resources and services.